Time;durP1;ratioP1;P1;durP2;ratioP2;P2;SDS_P1;SDS_P2;PMS_P1;PMS_P2;Temp;Humidity;BMP_temperature;BMP_pressure;BME280_temperature;BME280_humidity;BME280_pressure;Samples;Min_cycle;Max_cycle;Signal;HPM_P1;HPM_P2
2021/05/08 00:01:11;;;;;;;8.93;7.80;;;;;;;4.59;74.29;100415.09;128221;1101;22350;-78
2021/05/08 00:03:44;;;;;;;6.85;6.05;;;;;;;4.59;74.32;100409.86;128279;1101;23145;-81
2021/05/08 00:06:16;;;;;;;6.88;5.70;;;;;;;4.57;74.27;100419.65;128209;1099;23145;-80
2021/05/08 00:09:03;;;;;;;7.28;5.70;;;;;;;4.57;74.41;100419.65;128219;1101;22456;-79
2021/05/08 00:11:35;;;;;;;8.85;5.80;;;;;;;4.52;74.30;100411.33;128073;1098;24475;-79
2021/05/08 00:14:07;;;;;;;;;;;;;;;4.46;74.05;100419.69;128117;1098;24482;-78
2021/05/08 00:16:37;;;;;;;7.15;5.15;;;;;;;4.38;74.32;100419.50;128100;1100;23817;-78
2021/05/08 00:19:06;;;;;;;5.50;4.55;;;;;;;4.37;74.61;100425.70;128077;1098;22349;-78
2021/05/08 00:21:43;;;;;;;7.25;5.40;;;;;;;4.39;74.61;100442.08;128085;1101;22462;-78
2021/05/08 00:24:14;;;;;;;8.20;4.93;;;;;;;4.39;74.40;100442.08;128126;1098;22494;-78
2021/05/08 00:26:49;;;;;;;5.43;4.63;;;;;;;4.37;74.54;100442.22;128080;1101;22354;-78
2021/05/08 00:29:21;;;;;;;4.93;4.43;;;;;;;4.36;74.50;100444.94;128330;1101;22347;-79
2021/05/08 00:31:54;;;;;;;6.70;5.73;;;;;;;4.36;74.95;100444.94;128169;1102;22375;-74
2021/05/08 00:34:27;;;;;;;7.28;5.55;;;;;;;4.37;74.68;100446.63;128100;1101;22341;-77
2021/05/08 00:37:02;;;;;;;6.80;6.10;;;;;;;4.40;74.71;100447.20;128056;1101;22356;-77
2021/05/08 00:39:37;;;;;;;8.83;7.40;;;;;;;4.39;74.84;100455.98;128043;1104;23659;-77
2021/05/08 00:42:08;;;;;;;7.00;6.30;;;;;;;4.41;74.98;100461.10;128029;1104;22403;-79
2021/05/08 00:44:41;;;;;;;9.45;8.30;;;;;;;4.42;75.00;100457.52;128002;1102;24263;-79
2021/05/08 00:47:13;;;;;;;8.50;6.28;;;;;;;4.42;74.84;100445.27;128251;1101;22387;-78
2021/05/08 00:49:45;;;;;;;6.33;5.73;;;;;;;4.43;75.01;100452.18;128093;1104;22814;-78
2021/05/08 00:52:19;;;;;;;5.13;4.45;;;;;;;4.42;74.92;100450.50;127699;1101;24256;-78
2021/05/08 00:54:52;;;;;;;5.83;4.18;;;;;;;4.47;75.03;100453.59;127702;1100;22357;-77
2021/05/08 00:57:25;;;;;;;5.77;4.93;;;;;;;4.51;75.17;100456.77;127757;1098;25089;-78
2021/05/08 00:59:55;;;;;;;5.33;4.23;;;;;;;4.52;75.04;100455.81;128066;1101;22857;-77
2021/05/08 01:02:25;;;;;;;5.90;4.93;;;;;;;4.55;74.94;100459.97;128093;1101;22334;-77
2021/05/08 01:05:08;;;;;;;6.45;5.00;;;;;;;4.57;75.03;100465.92;128051;1102;22378;-77
2021/05/08 01:07:43;;;;;;;9.25;5.30;;;;;;;4.56;74.73;100470.29;128057;1101;22356;-77
2021/05/08 01:10:15;;;;;;;7.53;5.68;;;;;;;4.57;74.76;100468.53;128048;1101;22362;-79
2021/05/08 01:12:52;;;;;;;8.37;6.57;;;;;;;4.56;74.75;100465.06;128260;1098;22351;-78
2021/05/08 01:15:33;;;;;;;8.55;6.93;;;;;;;4.55;74.45;100473.05;128060;1098;22337;-79
2021/05/08 01:18:05;;;;;;;7.85;5.63;;;;;;;4.52;74.40;100470.69;128345;1098;22357;-77
2021/05/08 01:20:34;;;;;;;6.43;5.18;;;;;;;4.52;74.59;100470.69;128038;1102;22807;-77
2021/05/08 01:23:09;;;;;;;6.05;5.30;;;;;;;4.50;74.35;100476.05;128103;1102;22335;-77
2021/05/08 01:25:40;;;;;;;6.18;4.98;;;;;;;4.48;74.22;100475.34;128040;1101;22365;-77
2021/05/08 01:28:09;;;;;;;7.75;4.73;;;;;;;4.47;74.41;100471.89;128011;1098;22375;-79
2021/05/08 01:30:46;;;;;;;6.65;5.05;;;;;;;4.44;74.23;100476.55;128123;1102;22404;-79
2021/05/08 01:33:20;;;;;;;7.58;5.18;;;;;;;4.43;74.38;100477.48;128080;1098;22826;-79
2021/05/08 01:35:54;;;;;;;6.53;4.80;;;;;;;4.41;74.33;100480.23;127665;1101;24496;-80
2021/05/08 01:38:26;;;;;;;6.30;5.70;;;;;;;4.39;74.31;100489.98;127543;1107;23690;-80
2021/05/08 01:41:07;;;;;;;8.07;5.37;;;;;;;4.37;74.41;100494.53;127098;1109;22470;-79
2021/05/08 01:43:40;;;;;;;8.90;5.05;;;;;;;4.35;74.57;100495.59;127052;1111;22504;-79
2021/05/08 01:46:15;;;;;;;6.93;4.85;;;;;;;4.34;74.43;100488.72;127123;1111;22433;-78
2021/05/08 01:48:48;;;;;;;6.28;4.58;;;;;;;4.33;74.38;100487.89;127128;1111;22423;-79
2021/05/08 01:51:20;;;;;;;7.00;4.63;;;;;;;4.32;74.40;100496.67;127000;1111;22431;-78
2021/05/08 01:53:52;;;;;;;6.40;5.03;;;;;;;4.32;74.38;100494.05;127051;1107;22387;-80
2021/05/08 01:56:28;;;;;;;6.60;4.70;;;;;;;4.34;74.45;100494.77;127044;1108;22851;-79
2021/05/08 01:59:06;;;;;;;6.58;4.65;;;;;;;4.35;74.38;100488.58;127093;1108;22513;-79
2021/05/08 02:01:39;;;;;;;8.18;5.05;;;;;;;4.37;74.53;100496.31;127198;1107;22358;-79
2021/05/08 02:04:15;;;;;;;6.70;4.73;;;;;;;4.39;74.46;100497.00;127755;1105;23328;-78
2021/05/08 02:06:53;;;;;;;5.63;4.55;;;;;;;4.38;74.47;100498.80;127642;1101;26043;-79
2021/05/08 02:09:27;;;;;;;6.83;5.33;;;;;;;4.42;74.54;100488.91;127601;1103;24568;-77
2021/05/08 02:12:00;;;;;;;6.68;4.38;;;;;;;4.45;74.52;100493.89;127098;1104;22812;-78
2021/05/08 02:14:31;;;;;;;7.33;5.03;;;;;;;4.47;74.58;100502.46;126748;1110;22409;-78
2021/05/08 02:17:02;;;;;;;5.78;4.40;;;;;;;4.52;74.54;100499.46;126964;1110;22565;-77
2021/05/08 02:19:34;;;;;;;6.73;4.83;;;;;;;4.54;74.37;100495.77;127016;1110;22464;-78
2021/05/08 02:22:03;;;;;;;4.93;4.25;;;;;;;4.55;74.52;100494.80;126926;1110;22389;-76
2021/05/08 02:24:36;;;;;;;5.45;4.35;;;;;;;4.58;74.39;100502.41;126975;1108;24524;-77
2021/05/08 02:27:08;;;;;;;5.60;4.70;;;;;;;4.61;74.44;100501.33;126786;1105;22411;-77
2021/05/08 02:29:40;;;;;;;6.90;3.80;;;;;;;4.63;74.55;100504.63;127103;1106;22140;-78
2021/05/08 02:32:22;;;;;;;;;;;;;;;;;;;;;
2021/05/08 02:34:53;;;;;;;5.05;4.13;;;;;;;4.59;73.96;100505.84;127070;1105;22367;-78
2021/05/08 02:37:22;;;;;;;5.63;4.23;;;;;;;4.60;73.99;100518.83;126948;1110;22390;-77
2021/05/08 02:39:53;;;;;;;5.30;3.85;;;;;;;4.60;73.98;100510.97;126898;1110;22387;-78
2021/05/08 02:42:33;;;;;;;6.55;3.90;;;;;;;4.58;74.05;100523.34;126953;1108;24491;-77
2021/05/08 02:45:06;;;;;;;6.90;4.25;;;;;;;4.54;73.81;100527.16;126727;1108;24626;-78
2021/05/08 02:47:38;;;;;;;6.03;4.08;;;;;;;4.53;73.88;100535.13;126686;1111;22859;-78
2021/05/08 02:50:15;;;;;;;6.93;4.30;;;;;;;4.52;73.90;100526.45;126432;1116;22520;-77
2021/05/08 02:52:45;;;;;;;4.80;3.73;;;;;;;4.51;73.93;100527.41;126623;1114;22452;-77
2021/05/08 02:55:16;;;;;;;6.90;4.43;;;;;;;4.50;73.88;100536.22;126623;1111;24864;-76
2021/05/08 02:57:47;;;;;;;5.80;3.70;;;;;;;4.45;73.77;100527.91;126691;1114;22410;-77
2021/05/08 03:00:18;;;;;;;7.28;4.80;;;;;;;4.42;73.70;100538.61;126712;1108;22403;-76
2021/05/08 03:02:50;;;;;;;4.45;3.50;;;;;;;4.40;74.06;100533.52;126709;1111;22390;-77
2021/05/08 03:05:21;;;;;;;6.43;4.25;;;;;;;4.36;74.03;100539.92;127087;1108;22509;-77
2021/05/08 03:07:52;;;;;;;5.17;4.10;;;;;;;4.35;73.84;100532.22;127072;1108;22377;-77
2021/05/08 03:10:24;;;;;;;6.55;4.40;;;;;;;4.33;74.02;100540.20;127564;1105;24485;-77
2021/05/08 03:12:54;;;;;;;5.23;4.73;;;;;;;4.32;73.84;100543.75;127610;1108;22384;-77
2021/05/08 03:15:27;;;;;;;5.83;4.78;;;;;;;4.30;73.81;100545.67;127025;1106;24479;-78
2021/05/08 03:18:08;;;;;;;6.83;5.18;;;;;;;4.27;73.84;100550.31;127035;1108;22390;-76
2021/05/08 03:20:41;;;;;;;9.60;5.15;;;;;;;4.25;73.93;100553.86;127427;1105;22367;-77
2021/05/08 03:23:14;;;;;;;8.65;5.35;;;;;;;4.22;73.80;100559.34;127685;1105;22407;-78
2021/05/08 03:25:50;;;;;;;6.58;4.80;;;;;;;4.21;73.79;100564.70;127629;1105;22534;-78
2021/05/08 03:28:19;;;;;;;6.70;5.00;;;;;;;4.21;74.04;100559.47;127558;1108;22439;-78
2021/05/08 03:30:54;;;;;;;7.98;5.18;;;;;;;4.23;73.98;100562.77;127092;1108;22403;-78
2021/05/08 03:33:28;;;;;;;6.15;4.75;;;;;;;4.23;74.13;100570.63;127377;1101;22494;-78
2021/05/08 03:36:00;;;;;;;7.15;5.25;;;;;;;4.23;74.25;100574.09;127725;1101;24176;-77
2021/05/08 03:38:32;;;;;;;7.15;5.40;;;;;;;4.23;74.22;100566.25;127639;1104;22378;-77
2021/05/08 03:41:06;;;;;;;6.30;5.58;;;;;;;4.27;74.31;100568.63;127702;1104;22356;-78
2021/05/08 03:43:37;;;;;;;7.40;6.60;;;;;;;4.29;74.09;100566.70;127634;1104;22365;-77
2021/05/08 03:46:11;;;;;;;6.03;5.10;;;;;;;4.34;74.31;100567.17;127638;1104;22978;-78
2021/05/08 03:48:40;;;;;;;;;;;;;;;4.34;74.40;100575.02;127702;1102;24189;-77
2021/05/08 03:51:09;;;;;;;9.95;6.13;;;;;;;4.35;74.49;100577.50;128044;1104;21291;-79
2021/05/08 03:53:38;;;;;;;7.33;6.10;;;;;;;4.45;74.49;100585.45;127619;1101;24603;-78
2021/05/08 03:56:08;;;;;;;9.15;6.63;;;;;;;4.58;74.80;100575.66;127978;1104;22382;-76
2021/05/08 03:58:37;;;;;;;8.00;5.78;;;;;;;4.70;74.90;100579.92;127990;1104;22399;-76
2021/05/08 04:01:06;;;;;;;8.08;6.15;;;;;;;4.87;74.99;100583.78;127575;1105;22389;-76
2021/05/08 04:03:35;;;;;;;10.45;6.58;;;;;;;4.99;74.72;100584.55;127568;1105;23173;-75
2021/05/08 04:06:04;;;;;;;9.63;7.08;;;;;;;5.08;74.16;100578.56;127699;1101;24515;-75
2021/05/08 04:08:36;;;;;;;10.25;7.25;;;;;;;5.13;73.86;100583.41;127702;1104;23397;-76
2021/05/08 04:11:06;;;;;;;7.58;6.58;;;;;;;5.14;73.48;100585.91;127975;1102;24504;-79
2021/05/08 04:13:37;;;;;;;7.05;5.43;;;;;;;5.13;73.41;100594.73;127982;1101;24616;-79
2021/05/08 04:16:09;;;;;;;8.03;6.60;;;;;;;5.18;73.47;100589.11;127638;1105;22368;-79
2021/05/08 04:18:48;;;;;;;9.43;6.98;;;;;;;5.28;73.50;100591.80;128219;1101;25000;-79
2021/05/08 04:21:18;;;;;;;8.30;6.45;;;;;;;5.37;73.26;100598.90;127652;1099;22357;-76
2021/05/08 04:23:47;;;;;;;12.90;6.38;;;;;;;5.41;72.91;100595.88;128028;1103;22802;-76
2021/05/08 04:26:15;;;;;;;6.93;6.03;;;;;;;5.47;72.81;100596.34;128042;1103;22424;-76
2021/05/08 04:28:44;;;;;;;10.80;6.85;;;;;;;5.52;72.86;100602.83;128051;1101;22352;-75
2021/05/08 04:31:13;;;;;;;11.43;6.53;;;;;;;5.57;72.53;100603.30;128049;1103;22458;-77
2021/05/08 04:33:41;;;;;;;10.07;6.93;;;;;;;5.67;72.49;100603.34;128241;1101;23125;-76
2021/05/08 04:36:10;;;;;;;8.20;6.20;;;;;;;5.76;72.50;100593.86;128283;1098;24175;-77
2021/05/08 04:38:39;;;;;;;8.85;6.68;;;;;;;5.86;72.51;100603.45;128053;1102;22340;-76
2021/05/08 04:41:10;;;;;;;8.25;6.73;;;;;;;5.93;72.20;100606.41;128029;1101;22340;-77
2021/05/08 04:43:41;;;;;;;7.48;6.78;;;;;;;6.05;72.05;100601.88;128058;1099;22348;-76
2021/05/08 04:46:10;;;;;;;6.80;6.05;;;;;;;6.11;71.68;100607.44;128258;1101;22437;-76
2021/05/08 04:48:39;;;;;;;6.10;5.50;;;;;;;6.18;71.41;100610.36;128082;1101;22356;-76
2021/05/08 04:51:07;;;;;;;7.68;6.20;;;;;;;6.24;71.19;100607.20;128057;1098;22513;-77
2021/05/08 04:53:36;;;;;;;6.85;5.65;;;;;;;6.41;71.44;100610.98;128203;1101;22462;-76
2021/05/08 04:56:05;;;;;;;9.30;7.08;;;;;;;6.57;71.36;100616.54;128197;1098;24520;-77
2021/05/08 04:58:33;;;;;;;13.38;12.05;;;;;;;6.78;71.20;100613.80;128036;1098;22357;-76
2021/05/08 05:01:02;;;;;;;7.73;7.03;;;;;;;6.94;70.64;100613.27;128287;1098;22555;-77
2021/05/08 05:03:31;;;;;;;8.57;5.03;;;;;;;7.12;70.12;100617.82;128066;1101;22451;-77
2021/05/08 05:05:59;;;;;;;6.05;5.28;;;;;;;7.34;70.17;100622.80;128255;1098;22371;-77
2021/05/08 05:08:29;;;;;;;6.63;5.03;;;;;;;7.57;69.58;100622.48;128232;1097;24333;-76
2021/05/08 05:10:58;;;;;;;5.10;4.60;;;;;;;7.74;69.07;100621.75;127978;1101;22520;-77
2021/05/08 05:13:26;;;;;;;7.10;5.08;;;;;;;7.92;68.33;100629.71;127962;1101;22367;-77
2021/05/08 05:15:55;;;;;;;7.18;5.10;;;;;;;8.10;68.12;100630.63;127913;1104;22365;-76
2021/05/08 05:18:24;;;;;;;6.83;5.53;;;;;;;8.39;68.01;100637.57;127957;1101;22365;-75
2021/05/08 05:20:53;;;;;;;6.65;5.30;;;;;;;8.63;66.97;100642.28;127982;1105;22368;-76
2021/05/08 05:23:22;;;;;;;7.83;4.95;;;;;;;8.89;66.53;100637.13;127957;1104;22371;-76
2021/05/08 05:25:54;;;;;;;7.50;5.48;;;;;;;9.18;65.95;100650.09;127943;1101;22371;-76
2021/05/08 05:28:29;;;;;;;5.17;4.23;;;;;;;9.55;65.63;100646.42;127592;1098;22345;-76
2021/05/08 05:30:59;;;;;;;5.88;4.50;;;;;;;9.88;64.57;100645.66;128229;1101;22385;-77
2021/05/08 05:33:27;;;;;;;5.90;4.90;;;;;;;10.17;63.81;100657.70;128028;1098;24576;-77
2021/05/08 05:35:57;;;;;;;5.23;4.68;;;;;;;10.43;62.86;100655.05;128293;1101;22357;-74
2021/05/08 05:38:26;;;;;;;5.83;4.40;;;;;;;10.70;62.01;100661.91;127925;1105;22530;-75
2021/05/08 05:40:55;;;;;;;11.25;4.93;;;;;;;10.99;61.26;100660.63;128041;1101;24271;-78
2021/05/08 05:43:24;;;;;;;7.63;4.03;;;;;;;11.23;60.69;100665.96;127940;1104;22360;-79
2021/05/08 05:45:53;;;;;;;6.75;3.93;;;;;;;11.46;59.71;100662.64;128249;1101;22345;-79
2021/05/08 05:48:22;;;;;;;4.93;3.80;;;;;;;11.72;58.90;100671.22;127971;1104;22378;-79
2021/05/08 05:50:53;;;;;;;;;;;;;;;11.94;58.58;100676.86;127967;1104;23060;-78
2021/05/08 05:53:22;;;;;;;5.25;3.68;;;;;;;12.18;58.53;100668.02;127919;1104;22988;-79
2021/05/08 05:55:51;;;;;;;6.93;4.87;;;;;;;12.43;57.17;100668.77;127933;1101;23390;-79
2021/05/08 05:58:19;;;;;;;6.05;3.40;;;;;;;12.65;56.62;100665.33;128034;1101;24088;-79
2021/05/08 06:00:49;;;;;;;5.07;3.10;;;;;;;12.78;55.67;100671.91;128008;1100;22371;-79
2021/05/08 06:03:17;;;;;;;6.25;3.15;;;;;;;13.00;55.31;100675.60;128226;1101;22362;-79
2021/05/08 06:05:47;;;;;;;8.55;3.83;;;;;;;13.18;54.88;100668.17;127919;1104;22337;-79
2021/05/08 06:08:16;;;;;;;6.50;3.70;;;;;;;13.32;53.54;100677.21;127730;1105;22384;-79
2021/05/08 06:10:44;;;;;;;5.30;3.85;;;;;;;13.43;53.14;100679.47;127631;1107;22861;-80
2021/05/08 06:13:13;;;;;;;6.25;3.88;;;;;;;13.58;53.08;100685.63;127610;1105;22380;-79
2021/05/08 06:15:42;;;;;;;6.90;3.23;;;;;;;13.76;52.13;100685.31;127829;1104;22353;-79
2021/05/08 06:18:11;;;;;;;5.23;3.30;;;;;;;13.96;51.81;100677.66;127525;1107;22356;-79
2021/05/08 06:20:40;;;;;;;6.03;3.05;;;;;;;14.02;50.55;100678.73;127806;1107;22350;-79
2021/05/08 06:23:09;;;;;;;6.20;3.37;;;;;;;14.04;50.41;100685.52;127576;1105;22373;-79
2021/05/08 06:25:38;;;;;;;7.60;3.20;;;;;;;14.20;50.35;100689.02;127943;1103;22344;-79
2021/05/08 06:28:07;;;;;;;6.48;3.18;;;;;;;14.36;49.76;100678.17;128014;1101;22374;-79
2021/05/08 06:30:36;;;;;;;7.48;3.50;;;;;;;14.44;49.10;100685.25;128496;1098;24342;-79
2021/05/08 06:33:06;;;;;;;5.70;3.05;;;;;;;14.54;48.74;100683.16;128007;1101;22452;-79
2021/05/08 06:35:35;;;;;;;7.38;3.60;;;;;;;14.65;48.67;100687.98;127539;1105;22378;-80
2021/05/08 06:38:05;;;;;;;5.23;3.05;;;;;;;14.71;47.87;100686.43;127870;1101;24482;-77
2021/05/08 06:40:34;;;;;;;9.90;2.97;;;;;;;14.81;47.39;100681.64;128074;1102;22809;-75
2021/05/08 06:43:03;;;;;;;16.20;3.70;;;;;;;14.85;46.80;100685.56;127915;1101;24236;-74
2021/05/08 06:45:32;;;;;;;6.70;3.80;;;;;;;14.97;46.63;100697.38;127992;1101;24508;-74
2021/05/08 06:48:01;;;;;;;17.83;3.83;;;;;;;15.08;46.34;100687.25;127933;1101;24507;-74
2021/05/08 06:50:30;;;;;;;5.18;3.40;;;;;;;15.20;45.74;100691.06;127935;1104;22376;-75
2021/05/08 06:52:59;;;;;;;7.58;3.73;;;;;;;15.24;45.62;100698.47;127995;1102;22374;-75
2021/05/08 06:55:28;;;;;;;5.60;3.10;;;;;;;15.30;44.94;100695.05;128208;1098;22353;-75
2021/05/08 06:57:57;;;;;;;5.25;3.20;;;;;;;15.28;44.36;100696.25;128209;1098;22407;-75
2021/05/08 07:00:26;;;;;;;7.93;3.40;;;;;;;15.28;44.64;100694.41;128216;1098;22349;-74
2021/05/08 07:02:55;;;;;;;7.05;2.95;;;;;;;15.35;44.50;100699.80;128027;1098;24221;-74
2021/05/08 07:05:24;;;;;;;4.93;3.15;;;;;;;15.46;44.49;100703.77;128033;1098;24469;-75
2021/05/08 07:08:08;;;;;;;6.28;2.85;;;;;;;15.51;44.18;100693.39;128268;1098;22338;-74
2021/05/08 07:10:51;;;;;;;5.23;3.13;;;;;;;15.52;44.09;100701.17;128259;1098;22366;-76
2021/05/08 07:13:21;;;;;;;5.63;2.95;;;;;;;15.68;43.69;100702.78;127989;1098;22354;-75
2021/05/08 07:15:56;;;;;;;5.13;2.73;;;;;;;15.74;43.04;100702.02;128249;1101;22349;-73
2021/05/08 07:18:26;;;;;;;7.90;3.55;;;;;;;15.86;43.03;100696.14;128047;1098;22391;-76
2021/05/08 07:20:56;;;;;;;5.50;3.30;;;;;;;15.96;42.51;100705.47;128032;1098;24217;-74
2021/05/08 07:23:24;;;;;;;4.48;3.33;;;;;;;16.01;42.37;100704.88;128204;1098;22360;-75
2021/05/08 07:25:56;;;;;;;;;;;;;;;16.04;42.41;100698.34;128012;1098;24954;-74
2021/05/08 07:28:26;;;;;;;6.03;4.80;;;;;;;16.09;42.52;100706.55;128177;1101;21289;-75
2021/05/08 07:30:56;;;;;;;6.48;3.98;;;;;;;16.29;42.48;100696.83;128198;1098;22839;-76
2021/05/08 07:33:24;;;;;;;12.23;5.15;;;;;;;16.58;42.33;100703.75;128041;1102;22368;-75
2021/05/08 07:35:54;;;;;;;8.55;4.03;;;;;;;16.89;41.61;100702.45;128219;1101;22346;-74
2021/05/08 07:38:22;;;;;;;6.18;3.43;;;;;;;17.03;40.69;100708.69;128031;1098;24472;-74
2021/05/08 07:40:51;;;;;;;7.40;3.70;;;;;;;16.99;40.03;100697.56;128282;1098;22389;-75
2021/05/08 07:43:21;;;;;;;15.40;4.95;;;;;;;16.91;39.40;100709.24;127982;1101;22348;-76
2021/05/08 07:45:50;;;;;;;4.23;2.73;;;;;;;16.93;40.29;100712.55;128285;1101;22452;-75
2021/05/08 07:48:19;;;;;;;7.13;3.53;;;;;;;17.03;39.40;100714.02;127972;1102;23386;-75
2021/05/08 07:50:47;;;;;;;8.75;3.33;;;;;;;17.11;38.73;100721.83;128213;1101;23195;-76
2021/05/08 07:53:16;;;;;;;6.93;2.98;;;;;;;16.97;38.23;100717.48;128385;1101;23389;-74
2021/05/08 07:55:45;;;;;;;5.28;3.18;;;;;;;16.53;38.82;100722.21;128302;1101;22367;-75
2021/05/08 07:58:14;;;;;;;5.65;2.80;;;;;;;16.07;38.74;100727.27;128019;1098;22370;-74
2021/05/08 08:00:43;;;;;;;5.80;3.25;;;;;;;15.77;39.60;100735.44;128056;1101;22349;-74
2021/05/08 08:03:12;;;;;;;6.00;3.18;;;;;;;15.71;39.98;100736.20;128028;1102;24501;-75
2021/05/08 08:05:57;;;;;;;7.18;2.70;;;;;;;15.55;39.92;100729.27;127964;1104;22405;-75
2021/05/08 08:08:28;;;;;;;8.88;2.95;;;;;;;15.35;39.98;100731.73;128044;1105;22400;-76
2021/05/08 08:10:58;;;;;;;6.20;2.85;;;;;;;15.21;40.21;100727.30;128117;1101;22386;-76
2021/05/08 08:13:27;;;;;;;5.63;3.58;;;;;;;15.10;40.48;100728.63;128006;1104;22366;-75
2021/05/08 08:15:56;;;;;;;5.48;2.48;;;;;;;15.01;40.58;100724.42;127947;1101;22387;-76
2021/05/08 08:18:27;;;;;;;6.48;2.53;;;;;;;14.83;40.05;100725.66;127988;1104;22369;-75
2021/05/08 08:20:56;;;;;;;5.48;2.55;;;;;;;14.65;40.74;100730.53;127982;1098;22393;-76
2021/05/08 08:23:27;;;;;;;4.80;2.70;;;;;;;14.90;41.36;100735.56;128092;1101;22361;-74
2021/05/08 08:25:59;;;;;;;7.78;3.80;;;;;;;15.26;41.14;100739.03;128028;1101;22339;-76
2021/05/08 08:28:28;;;;;;;7.10;2.90;;;;;;;15.73;40.78;100731.52;128086;1098;22341;-75
2021/05/08 08:31:32;;;;;;;5.93;2.50;;;;;;;15.75;38.99;100727.63;128289;1104;22367;-77
2021/05/08 08:34:01;;;;;;;5.13;2.90;;;;;;;15.59;40.16;100743.84;128065;1101;22371;-75
2021/05/08 08:36:30;;;;;;;5.63;3.25;;;;;;;15.81;39.92;100742.02;128080;1101;24498;-75
2021/05/08 08:39:00;;;;;;;7.53;3.90;;;;;;;15.76;39.21;100736.44;127621;1107;22383;-75
2021/05/08 08:41:29;;;;;;;7.40;3.70;;;;;;;15.32;38.98;100750.75;127667;1107;22392;-75
2021/05/08 08:44:00;;;;;;;7.25;3.58;;;;;;;14.77;39.21;100738.88;127752;1104;22402;-76
2021/05/08 08:46:33;;;;;;;5.07;2.70;;;;;;;14.68;40.92;100742.64;127119;1108;22403;-76
2021/05/08 08:49:06;;;;;;;9.05;3.78;;;;;;;15.02;41.46;100748.16;127269;1104;22403;-76
2021/05/08 08:51:37;;;;;;;4.08;2.40;;;;;;;15.20;40.43;100760.26;127696;1105;22365;-75
2021/05/08 08:54:08;;;;;;;5.68;2.85;;;;;;;14.96;39.33;100756.92;127606;1104;22359;-74
2021/05/08 08:56:44;;;;;;;6.68;3.33;;;;;;;14.60;39.66;100754.20;127632;1101;24482;-74
2021/05/08 08:59:27;;;;;;;7.53;3.13;;;;;;;14.53;40.79;100754.12;128063;1104;22381;-75
2021/05/08 09:01:59;;;;;;;5.90;3.08;;;;;;;14.66;40.84;100752.63;127989;1104;22347;-74
2021/05/08 09:04:28;;;;;;;10.23;6.17;;;;;;;14.53;40.42;100747.98;128053;1101;22336;-74
2021/05/08 09:06:58;;;;;;;6.25;4.20;;;;;;;14.65;41.09;100750.98;128261;1098;22346;-75
2021/05/08 09:09:28;;;;;;;6.13;3.68;;;;;;;14.93;41.12;100754.63;127980;1101;22344;-76
2021/05/08 09:11:57;;;;;;;5.03;2.90;;;;;;;15.15;39.95;100762.64;127986;1104;23180;-75
2021/05/08 09:14:30;;;;;;;4.78;2.60;;;;;;;14.88;38.82;100754.34;128007;1101;22371;-75
2021/05/08 09:17:17;;;;;;;6.13;2.00;;;;;;;14.68;39.43;100759.42;128043;1104;22347;-75
2021/05/08 09:19:59;;;;;;;7.03;2.73;;;;;;;15.06;39.80;100754.78;128075;1104;22344;-75
2021/05/08 09:22:37;;;;;;;6.83;4.38;;;;;;;15.22;38.29;100758.22;127670;1103;22889;-75
2021/05/08 09:25:17;;;;;;;4.38;3.35;;;;;;;15.01;37.82;100764.33;127678;1106;22361;-75
2021/05/08 09:27:58;;;;;;;7.53;2.95;;;;;;;14.96;38.59;100767.56;127747;1105;22448;-75
2021/05/08 09:30:30;;;;;;;4.83;2.17;;;;;;;14.78;37.78;100761.80;128074;1105;22429;-75
2021/05/08 09:33:11;;;;;;;3.48;2.00;;;;;;;14.48;38.18;100761.77;127968;1105;22492;-75
2021/05/08 09:35:40;;;;;;;3.75;2.10;;;;;;;14.22;38.35;100769.36;127986;1104;22377;-75
2021/05/08 09:38:13;;;;;;;5.03;2.58;;;;;;;14.22;39.08;100766.70;127976;1101;24498;-75
2021/05/08 09:40:48;;;;;;;5.20;2.70;;;;;;;14.16;38.85;100762.95;128049;1101;22794;-76
2021/05/08 09:43:21;;;;;;;4.73;2.83;;;;;;;13.96;38.96;100772.42;128236;1101;22360;-74
2021/05/08 09:45:54;;;;;;;6.43;3.20;;;;;;;13.85;39.37;100755.09;128252;1101;22340;-76
2021/05/08 09:48:26;;;;;;;4.30;2.85;;;;;;;13.86;39.37;100772.66;128221;1098;22352;-75
2021/05/08 09:51:26;;;;;;;6.83;2.80;;;;;;;13.55;38.79;100772.75;128309;1101;22378;-75
2021/05/08 09:54:24;;;;;;;6.18;2.85;;;;;;;13.37;39.62;100767.73;128259;1101;22368;-75
2021/05/08 09:57:04;;;;;;;5.35;3.05;;;;;;;13.93;40.40;100757.69;127535;1108;22373;-75
2021/05/08 09:59:42;;;;;;;5.48;3.05;;;;;;;14.44;39.51;100764.99;126955;1108;22422;-75
2021/05/08 10:02:14;;;;;;;4.83;2.80;;;;;;;14.74;39.23;100748.05;126989;1111;24011;-75
2021/05/08 10:05:13;;;;;;;5.65;3.75;;;;;;;14.90;38.17;100754.18;126968;1111;22520;-75
2021/05/08 10:07:44;;;;;;;4.37;3.07;;;;;;;14.91;38.23;100756.64;126976;1111;22398;-76
2021/05/08 10:10:20;;;;;;;9.05;4.05;;;;;;;14.92;38.40;100752.14;126943;1111;22410;-76
2021/05/08 10:12:51;;;;;;;4.60;2.90;;;;;;;15.27;38.26;100745.18;126983;1111;22409;-75
2021/05/08 10:15:24;;;;;;;5.15;3.23;;;;;;;15.50;38.14;100743.16;127332;1107;22404;-75
2021/05/08 10:17:57;;;;;;;3.70;2.65;;;;;;;15.68;37.23;100747.23;127538;1108;22397;-76
2021/05/08 10:20:40;;;;;;;4.10;2.48;;;;;;;15.36;36.93;100760.02;127547;1107;22839;-76
2021/05/08 10:23:13;;;;;;;4.48;2.70;;;;;;;14.90;36.90;100751.52;127257;1108;23408;-74
2021/05/08 10:25:45;;;;;;;5.53;3.03;;;;;;;14.59;37.91;100756.05;127995;1104;23355;-75
2021/05/08 10:28:17;;;;;;;7.45;3.78;;;;;;;14.60;38.23;100754.20;127604;1105;22376;-75
2021/05/08 10:30:48;;;;;;;7.50;3.33;;;;;;;14.77;38.42;100758.31;128029;1101;22400;-75
2021/05/08 10:33:22;;;;;;;3.83;3.00;;;;;;;14.99;38.06;100745.05;127675;1102;22401;-74
2021/05/08 10:35:56;;;;;;;7.18;3.33;;;;;;;15.12;37.84;100749.70;128345;1101;22803;-74
2021/05/08 10:38:35;;;;;;;5.10;3.23;;;;;;;14.95;37.16;100747.27;128056;1101;22446;-74
2021/05/08 10:41:13;;;;;;;5.20;4.43;;;;;;;14.73;37.21;100749.06;128251;1101;22364;-77
2021/05/08 10:43:56;;;;;;;5.15;2.93;;;;;;;14.50;37.44;100753.63;128215;1101;22407;-77
2021/05/08 10:46:28;;;;;;;3.80;2.65;;;;;;;14.18;37.54;100757.45;128192;1098;22362;-75
2021/05/08 10:49:29;;;;;;;4.48;2.80;;;;;;;14.03;38.40;100758.26;128114;1102;22341;-75
2021/05/08 10:52:02;;;;;;;4.10;2.60;;;;;;;13.83;38.80;100762.43;127640;1105;22381;-76
2021/05/08 10:54:43;;;;;;;4.73;2.58;;;;;;;13.77;39.60;100753.34;127720;1105;23263;-76
2021/05/08 10:57:25;;;;;;;7.05;3.65;;;;;;;13.74;39.30;100747.56;127941;1103;24534;-76
2021/05/08 11:00:07;;;;;;;7.50;3.97;;;;;;;13.62;39.62;100760.41;127961;1102;22484;-74
2021/05/08 11:03:03;;;;;;;6.00;3.88;;;;;;;13.64;40.07;100756.59;127514;1105;22589;-75
2021/05/08 11:05:35;;;;;;;6.15;3.83;;;;;;;13.77;40.12;100748.03;126713;1109;24192;-74
2021/05/08 11:08:27;;;;;;;4.98;3.15;;;;;;;13.96;39.96;100756.48;126785;1111;22840;-74
2021/05/08 11:11:07;;;;;;;3.95;3.10;;;;;;;14.08;39.77;100745.24;126954;1109;23188;-74
2021/05/08 11:13:42;;;;;;;5.03;2.90;;;;;;;14.18;39.25;100744.98;126646;1111;22406;-75
2021/05/08 11:16:19;;;;;;;4.55;3.03;;;;;;;14.26;39.08;100747.58;126629;1111;24196;-74
2021/05/08 11:18:51;;;;;;;3.23;2.68;;;;;;;14.29;38.62;100741.05;126643;1111;22409;-74
2021/05/08 11:21:21;;;;;;;6.93;3.28;;;;;;;14.28;38.52;100734.91;126744;1111;24548;-76
2021/05/08 11:24:02;;;;;;;4.55;2.85;;;;;;;14.40;38.24;100742.45;126970;1111;22348;-75
2021/05/08 11:26:44;;;;;;;3.60;3.00;;;;;;;14.34;37.95;100744.81;127042;1108;24180;-76
2021/05/08 11:29:20;;;;;;;11.35;3.95;;;;;;;14.24;38.31;100738.13;127315;1108;22412;-74
2021/05/08 11:31:52;;;;;;;6.48;3.30;;;;;;;14.24;38.47;100743.44;127584;1108;22389;-74
2021/05/08 11:34:24;;;;;;;5.68;3.00;;;;;;;14.23;38.11;100747.09;127144;1108;22395;-76
2021/05/08 11:37:02;;;;;;;6.03;2.87;;;;;;;14.17;38.09;100748.66;126980;1108;24215;-73
2021/05/08 11:39:40;;;;;;;6.53;4.03;;;;;;;14.14;38.16;100749.02;127523;1104;24507;-74
2021/05/08 11:42:16;;;;;;;5.75;3.30;;;;;;;14.06;38.18;100741.96;127627;1104;22394;-76
2021/05/08 11:44:58;;;;;;;7.40;3.20;;;;;;;14.04;38.00;100749.27;128015;1104;22369;-76
2021/05/08 11:47:36;;;;;;;5.85;2.68;;;;;;;13.99;37.72;100742.84;127635;1101;24485;-73